createdAt,value
2018-01-17T00:00:00.793Z,24.9
2018-01-17T00:02:57.755Z,24.9
2018-01-17T00:05:54.842Z,24.9
2018-01-17T00:08:51.801Z,24.9
2018-01-17T00:11:48.872Z,25
2018-01-17T00:14:45.779Z,25
2018-01-17T00:17:42.884Z,25
2018-01-17T00:20:39.743Z,25
2018-01-17T00:23:36.822Z,25.1
2018-01-17T00:26:33.799Z,25.1
2018-01-17T00:29:30.825Z,25.1
2018-01-17T00:32:27.748Z,25.2
2018-01-17T00:35:24.863Z,25.2
2018-01-17T00:38:21.784Z,25.2
2018-01-17T00:41:19.232Z,25.3
2018-01-17T00:44:15.858Z,25.3
2018-01-17T00:47:13.175Z,25.4
2018-01-17T00:50:09.801Z,25.4
2018-01-17T00:53:06.837Z,25.4
2018-01-17T00:56:03.811Z,25.5
2018-01-17T00:59:00.830Z,25.5
2018-01-17T01:01:57.833Z,25.6
2018-01-17T01:04:54.830Z,25.6
2018-01-17T01:07:51.821Z,25.6
2018-01-17T01:10:49.299Z,25.7
2018-01-17T01:13:45.903Z,25.7
2018-01-17T01:16:42.868Z,25.8
2018-01-17T01:19:39.801Z,25.8
2018-01-17T01:28:30.868Z,25.9
2018-01-17T01:31:27.785Z,26
2018-01-17T01:34:24.852Z,26
2018-01-17T01:37:21.838Z,26
2018-01-17T01:40:18.870Z,26
2018-01-17T01:43:16.919Z,26.1
2018-01-17T01:46:12.905Z,26.1
2018-01-17T01:49:09.826Z,26.2
2018-01-17T01:52:06.912Z,26.3
2018-01-17T01:58:00.927Z,26.4
2018-01-17T02:00:57.873Z,26.4
2018-01-17T02:03:55.943Z,26.4
2018-01-17T02:06:52.006Z,26.5
2018-01-17T02:12:45.953Z,26.7
2018-01-17T02:15:42.879Z,26.7
2018-01-17T02:18:39.938Z,26.6
2018-01-17T02:21:36.935Z,26.6
2018-01-17T02:24:34.018Z,26.6
2018-01-17T02:27:31.086Z,26.7
2018-01-17T02:30:28.010Z,26.8
2018-01-17T02:33:24.913Z,26.9
2018-01-17T02:36:22.070Z,27
2018-01-17T02:39:18.913Z,27
2018-01-17T02:42:16.039Z,27.1
2018-01-17T02:45:12.992Z,27.2
2018-01-17T02:48:09.983Z,27.3
2018-01-17T02:51:07.896Z,27.4
2018-01-17T02:54:04.036Z,27.4
2018-01-17T02:57:00.974Z,27.6
2018-01-17T02:59:59.031Z,27.6
2018-01-17T03:06:03.095Z,27.6
2018-01-17T04:28:38.866Z,29.8
2018-01-17T04:31:35.848Z,29.7
2018-01-17T04:34:37.806Z,29.8
2018-01-17T04:37:29.755Z,29.8
2018-01-17T04:40:26.946Z,29.7
2018-01-17T04:43:23.801Z,29.8
2018-01-17T04:46:20.807Z,29.8
2018-01-17T04:49:17.804Z,29.8
2018-01-17T04:55:11.794Z,30
2018-01-17T04:58:08.858Z,30
2018-01-17T05:01:05.798Z,30
2018-01-17T05:06:59.933Z,30
2018-01-17T05:09:56.971Z,30.1
2018-01-17T05:12:53.771Z,30.1
2018-01-17T05:15:50.814Z,30.1
2018-01-17T05:18:47.707Z,30.1
2018-01-17T05:21:44.748Z,30.2
2018-01-17T05:30:35.796Z,30.4
2018-01-17T05:33:32.670Z,30.5
2018-01-17T05:36:29.762Z,30.6
2018-01-17T05:39:26.720Z,30.7
2018-01-17T05:45:20.871Z,30.8
2018-01-17T05:48:17.739Z,30.8
2018-01-17T05:51:14.797Z,30.8
2018-01-17T05:54:11.738Z,30.8
2018-01-17T05:57:08.784Z,30.8
2018-01-17T06:00:05.705Z,30.7
2018-01-17T06:08:56.828Z,30.7
2018-01-17T06:14:50.875Z,30.7
2018-01-17T06:17:47.743Z,30.8
2018-01-17T06:23:41.852Z,30.8
2018-01-17T06:26:38.709Z,30.8
2018-01-17T06:29:36.670Z,30.8
2018-01-17T06:32:32.753Z,30.8
2018-01-17T06:35:29.857Z,30.8
2018-01-17T06:38:26.759Z,30.8
2018-01-17T06:41:24.558Z,30.8
2018-01-17T06:44:20.779Z,30.9
2018-01-17T06:47:17.833Z,30.9
2018-01-17T06:53:11.791Z,31
2018-01-17T06:56:08.745Z,31.1
2018-01-17T06:59:05.792Z,31.2
2018-01-17T07:02:02.779Z,31.2
2018-01-17T07:04:59.784Z,31.2
2018-01-17T07:07:56.736Z,31.2
2018-01-17T07:10:54.329Z,31.4
2018-01-17T07:13:50.763Z,31.4
2018-01-17T07:16:47.825Z,31.5
2018-01-17T07:19:44.769Z,31.5
2018-01-17T07:22:41.840Z,31.5
2018-01-17T07:25:38.794Z,31.5
2018-01-17T07:28:35.925Z,31.5
2018-01-17T07:31:32.813Z,31.5
2018-01-17T07:34:29.921Z,31.5
2018-01-17T07:37:26.853Z,31.5
2018-01-17T07:40:23.946Z,31.5
2018-01-17T07:43:20.819Z,31.4
2018-01-17T07:49:15.058Z,31.3
2018-01-17T07:52:11.834Z,31.2
2018-01-17T07:55:08.901Z,31
2018-01-17T07:58:05.862Z,30.9
2018-01-17T08:01:02.972Z,30.9
2018-01-17T08:06:56.949Z,31
2018-01-17T08:12:50.920Z,31.2
2018-01-17T08:15:47.890Z,31.2
2018-01-17T08:18:44.939Z,31.3
2018-01-17T08:21:41.875Z,31.4
2018-01-17T08:24:38.947Z,31.4
2018-01-17T08:27:35.988Z,31.4
2018-01-17T08:30:32.980Z,31.5
2018-01-17T08:33:30.160Z,31.5
2018-01-17T08:36:26.914Z,31.4
2018-01-17T08:39:24.034Z,31.5
2018-01-17T08:42:20.881Z,31.5
2018-01-17T08:48:14.928Z,31.5
2018-01-17T08:51:11.879Z,31.5
2018-01-17T08:54:09.122Z,31.5
2018-01-17T08:57:05.869Z,31.5
2018-01-17T09:05:56.873Z,31.4
2018-01-17T09:11:50.952Z,31.3
2018-01-17T09:14:47.860Z,31.3
2018-01-17T09:20:42.201Z,31.2
2018-01-17T09:23:39.126Z,31.1
2018-01-17T09:26:35.894Z,31.1
2018-01-17T09:29:32.859Z,31
2018-01-17T09:32:29.880Z,31
2018-01-17T09:35:26.855Z,31
2018-01-17T09:38:23.932Z,30.9
2018-01-17T09:41:20.821Z,30.8
2018-01-17T09:44:18.898Z,30.8
2018-01-17T09:47:14.884Z,30.8
2018-01-17T09:50:11.879Z,30.8
2018-01-17T09:53:08.861Z,30.7
2018-01-17T09:56:05.926Z,30.6
2018-01-17T09:59:02.838Z,30.6
2018-01-17T10:01:59.922Z,30.5
2018-01-17T10:04:56.831Z,30.5
2018-01-17T10:07:53.903Z,30.4
2018-01-17T10:10:51.840Z,30.3
2018-01-17T10:13:47.973Z,30.2
2018-01-17T10:16:44.855Z,30.1
2018-01-17T10:19:41.991Z,30
2018-01-17T10:22:38.836Z,30
2018-01-17T10:28:32.941Z,29.9
2018-01-17T10:31:29.823Z,29.8
2018-01-17T10:34:26.923Z,29.7
2018-01-17T10:40:20.975Z,29.7
2018-01-17T10:43:17.854Z,29.6
2018-01-17T10:46:14.904Z,29.6
2018-01-17T10:52:09.032Z,29.4
2018-01-17T10:55:05.878Z,29.4
2018-01-17T10:58:02.950Z,29.3
2018-01-17T11:03:57.987Z,29.2
2018-01-17T11:09:50.999Z,29.1
2018-01-17T11:12:47.876Z,29
2018-01-17T11:15:44.914Z,29
2018-01-17T11:18:41.878Z,28.8
2018-01-17T11:21:38.938Z,28.8
2018-01-17T11:24:42.719Z,28.8
2018-01-17T11:30:29.982Z,28.7
2018-01-17T11:33:26.902Z,28.6
2018-01-17T11:39:21.392Z,28.6
2018-01-17T11:42:17.954Z,28.6
2018-01-17T11:45:14.980Z,28.4
2018-01-17T11:54:05.967Z,28.2
2018-01-17T11:57:02.937Z,28.1
2018-01-17T11:59:59.952Z,28.1
2018-01-17T12:02:56.887Z,28
2018-01-17T12:05:54.030Z,28
2018-01-17T12:08:50.910Z,27.8
2018-01-17T12:14:45.046Z,27.8
2018-01-17T12:17:41.931Z,27.7
2018-01-17T12:26:33.044Z,27.5
2018-01-17T12:29:29.918Z,27.4
2018-01-17T12:32:27.369Z,27.5
2018-01-17T12:35:24.226Z,27.4
2018-01-17T12:38:21.265Z,27.4
2018-01-17T12:41:19.003Z,27.3
2018-01-17T12:44:14.966Z,27.2
2018-01-17T12:47:11.918Z,27.2
2018-01-17T12:50:09.042Z,27.2
2018-01-17T12:53:05.942Z,27.1
2018-01-17T12:56:03.017Z,27.1
2018-01-17T12:58:59.941Z,27.1
2018-01-17T13:04:54.227Z,27
2018-01-17T13:07:50.972Z,27
2018-01-17T13:10:49.049Z,27
2018-01-17T13:13:44.977Z,26.9
2018-01-17T13:16:43.095Z,26.9
2018-01-17T13:34:24.134Z,26.7
2018-01-17T13:37:20.994Z,26.7
2018-01-17T13:40:19.301Z,26.7
2018-01-17T13:43:15.995Z,26.7
2018-01-17T13:46:12.077Z,26.6
2018-01-17T13:49:10.014Z,26.6
2018-01-17T13:52:06.140Z,26.6
2018-01-17T13:55:03.000Z,26.6
2018-01-17T14:03:54.128Z,26.5
2018-01-17T14:06:51.028Z,26.4
2018-01-17T14:12:46.098Z,26.4
2018-01-17T14:15:41.951Z,26.4
2018-01-17T14:18:39.058Z,26.4
2018-01-17T14:21:35.987Z,26.4
2018-01-17T14:24:33.075Z,26.3
2018-01-17T14:27:29.980Z,26.3
2018-01-17T14:30:27.085Z,26.3
2018-01-17T14:33:30.025Z,26.3
2018-01-17T14:36:21.049Z,26.3
2018-01-17T14:39:18.021Z,26.3
2018-01-17T14:42:16.093Z,26.2
2018-01-17T14:45:12.001Z,26.3
2018-01-17T14:48:09.055Z,26.2
2018-01-17T14:51:06.019Z,26.2
2018-01-17T14:54:03.054Z,26.2
2018-01-17T14:57:00.016Z,26.1
2018-01-17T15:02:55.091Z,26
2018-01-17T15:05:51.031Z,26
2018-01-17T15:08:49.093Z,26
2018-01-17T15:14:43.099Z,25.9
2018-01-17T15:17:39.019Z,25.9
2018-01-17T15:20:36.164Z,25.9
2018-01-17T15:23:33.982Z,25.9
2018-01-17T15:26:31.097Z,25.9
2018-01-17T15:29:28.014Z,25.9
2018-01-17T15:35:21.112Z,25.9
2018-01-17T15:41:16.121Z,25.8
2018-01-17T15:44:11.990Z,25.8
2018-01-17T15:47:10.095Z,25.8
2018-01-17T15:50:06.069Z,25.8
2018-01-17T15:53:03.095Z,25.8
2018-01-17T15:58:57.080Z,25.7
2018-01-17T16:04:52.158Z,25.6
2018-01-17T16:07:48.019Z,25.6
2018-01-17T16:13:43.117Z,25.7
2018-01-17T16:16:39.038Z,25.6
2018-01-17T16:19:36.099Z,25.7
2018-01-17T16:22:33.019Z,25.7
2018-01-17T16:25:31.093Z,25.7
2018-01-17T16:28:27.026Z,25.7
2018-01-17T16:31:25.112Z,25.7
2018-01-17T16:34:22.046Z,25.7
2018-01-17T16:37:18.084Z,25.7
2018-01-17T16:40:15.026Z,25.6
2018-01-17T16:43:13.159Z,25.6
2018-01-17T16:46:09.023Z,25.6
2018-01-17T16:49:06.139Z,25.6
2018-01-17T16:52:04.042Z,25.6
2018-01-17T16:55:00.130Z,25.6
2018-01-17T16:57:58.028Z,25.6
2018-01-17T17:00:54.103Z,25.6
2018-01-17T17:03:52.112Z,25.6
2018-01-17T17:06:48.136Z,25.6
2018-01-17T17:09:45.048Z,25.5
2018-01-17T17:12:42.127Z,25.5
2018-01-17T17:15:40.087Z,25.5
2018-01-17T17:18:36.216Z,25.5
2018-01-17T17:21:33.071Z,25.5
2018-01-17T17:24:30.286Z,25.5
2018-01-17T17:27:27.037Z,25.4
2018-01-17T17:30:24.113Z,25.5
2018-01-17T17:36:18.183Z,25.4
2018-01-17T17:39:15.096Z,25.4
2018-01-17T17:42:13.187Z,25.4
2018-01-17T17:45:10.048Z,25.4
2018-01-17T17:48:06.127Z,25.4
2018-01-17T17:51:03.062Z,25.3
2018-01-17T17:54:00.158Z,25.4
2018-01-17T17:56:57.074Z,25.3
2018-01-17T18:02:51.150Z,25.3
2018-01-17T18:05:48.089Z,25.3
2018-01-17T18:11:43.211Z,25.2
2018-01-17T18:14:39.086Z,25.3
2018-01-17T18:17:36.136Z,25.2
2018-01-17T18:20:33.063Z,25.2
2018-01-17T18:26:27.161Z,25.2
2018-01-17T18:32:21.197Z,25.2
2018-01-17T18:35:18.105Z,25.2
2018-01-17T18:38:16.188Z,25.2
2018-01-17T18:41:13.158Z,25.2
2018-01-17T18:47:07.188Z,25.1
2018-01-17T18:53:00.147Z,25.1
2018-01-17T18:58:55.263Z,25
2018-01-17T19:01:51.088Z,25.1
2018-01-17T19:10:41.569Z,25
2018-01-17T19:16:35.601Z,25
2018-01-17T19:19:32.536Z,25
2018-01-17T19:22:29.577Z,25
2018-01-17T19:25:26.544Z,25.1
2018-01-17T19:31:20.609Z,25
2018-01-17T19:40:11.645Z,24.9
2018-01-17T19:43:09.150Z,24.9
2018-01-17T19:46:05.630Z,25
2018-01-17T19:49:02.613Z,25
2018-01-17T19:51:59.636Z,25
2018-01-17T19:57:53.642Z,24.9
2018-01-17T20:00:50.580Z,24.9
2018-01-17T20:03:47.759Z,24.8
2018-01-17T20:06:44.991Z,24.9
2018-01-17T20:18:33.161Z,24.8
2018-01-17T20:27:23.728Z,24.8
2018-01-17T20:30:20.633Z,24.8
2018-01-17T20:33:17.695Z,24.8
2018-01-17T20:36:14.609Z,24.8
2018-01-17T20:39:11.709Z,24.8
2018-01-17T20:42:08.753Z,24.8
2018-01-17T20:51:00.135Z,24.8
2018-01-17T20:53:56.698Z,24.8
2018-01-17T20:56:53.732Z,24.8
2018-01-17T20:59:50.678Z,24.8
2018-01-17T21:02:48.138Z,24.7
2018-01-17T21:05:44.720Z,24.7
2018-01-17T21:11:38.894Z,24.7
2018-01-17T21:14:36.069Z,24.7
2018-01-17T21:17:32.752Z,24.7
2018-01-17T21:20:29.700Z,24.7
2018-01-17T21:23:26.767Z,24.6
2018-01-17T21:26:23.689Z,24.7
2018-01-17T21:29:21.217Z,24.6
2018-01-17T21:32:18.121Z,24.6
2018-01-17T21:35:14.794Z,24.6
2018-01-17T21:41:08.793Z,24.6
2018-01-17T21:44:05.753Z,24.6
2018-01-17T21:47:03.168Z,24.6
2018-01-17T21:49:59.771Z,24.6
2018-01-17T21:52:56.822Z,24.6
2018-01-17T21:55:53.761Z,24.6
2018-01-17T21:58:50.862Z,24.6
2018-01-17T22:01:48.160Z,24.6
2018-01-17T22:07:41.796Z,24.6
2018-01-17T22:19:29.917Z,24.5
2018-01-17T22:22:27.199Z,24.6
2018-01-17T22:25:23.821Z,24.6
2018-01-17T22:28:20.802Z,24.5
2018-01-17T22:40:08.926Z,24.5
2018-01-17T22:43:05.898Z,24.4
2018-01-17T22:46:02.986Z,24.5
2018-01-17T22:48:59.790Z,24.5
2018-01-17T22:51:56.855Z,24.5
2018-01-17T22:54:53.831Z,24.5
2018-01-17T22:57:51.481Z,24.5
2018-01-17T23:03:44.895Z,24.4
2018-01-17T23:06:41.862Z,24.4
2018-01-17T23:09:38.882Z,24.4
2018-01-17T23:12:36.072Z,24.4
2018-01-17T23:21:27.300Z,24.3
2018-01-17T23:24:23.857Z,24.3
2018-01-17T23:27:21.383Z,24.2
2018-01-17T23:30:17.926Z,24.2
2018-01-17T23:33:15.279Z,24.2
2018-01-17T23:36:12.293Z,24.3
2018-01-17T23:39:08.899Z,24.2
2018-01-17T23:42:06.442Z,24.3
2018-01-17T23:50:57.232Z,24.2
2018-01-17T23:53:53.882Z,24.2
2018-01-17T23:56:50.941Z,24.2
2018-01-17T23:59:47.908Z,24.2
